sensor_id;sensor_type;location;lat;lon;timestamp;P1;durP1;ratioP1;P2;durP2;ratioP2
22417;SDS011;11376;50.932;4.442;2024-02-14T00:02:10;5.30;;;2.17;;
22417;SDS011;11376;50.932;4.442;2024-02-14T00:04:37;4.40;;;1.97;;
22417;SDS011;11376;50.932;4.442;2024-02-14T00:07:03;5.17;;;2.30;;
22417;SDS011;11376;50.932;4.442;2024-02-14T00:09:29;4.93;;;2.50;;
22417;SDS011;11376;50.932;4.442;2024-02-14T00:11:55;6.23;;;2.00;;
22417;SDS011;11376;50.932;4.442;2024-02-14T00:14:20;7.30;;;2.37;;
22417;SDS011;11376;50.932;4.442;2024-02-14T00:16:46;6.37;;;2.60;;
22417;SDS011;11376;50.932;4.442;2024-02-14T00:19:12;3.97;;;2.10;;
22417;SDS011;11376;50.932;4.442;2024-02-14T00:21:37;6.23;;;2.43;;
22417;SDS011;11376;50.932;4.442;2024-02-14T00:24:04;6.23;;;2.20;;
22417;SDS011;11376;50.932;4.442;2024-02-14T00:26:30;6.43;;;2.37;;
22417;SDS011;11376;50.932;4.442;2024-02-14T00:28:56;4.00;;;1.93;;
22417;SDS011;11376;50.932;4.442;2024-02-14T00:31:21;6.30;;;1.90;;
22417;SDS011;11376;50.932;4.442;2024-02-14T00:33:47;3.87;;;1.70;;
22417;SDS011;11376;50.932;4.442;2024-02-14T00:36:13;6.63;;;2.00;;
22417;SDS011;11376;50.932;4.442;2024-02-14T00:38:38;4.23;;;2.00;;
22417;SDS011;11376;50.932;4.442;2024-02-14T00:41:04;6.13;;;2.20;;
22417;SDS011;11376;50.932;4.442;2024-02-14T00:43:29;6.83;;;2.23;;
22417;SDS011;11376;50.932;4.442;2024-02-14T00:45:55;5.63;;;2.30;;
22417;SDS011;11376;50.932;4.442;2024-02-14T00:48:23;4.97;;;1.60;;
22417;SDS011;11376;50.932;4.442;2024-02-14T00:50:49;5.53;;;2.20;;
22417;SDS011;11376;50.932;4.442;2024-02-14T00:53:14;4.60;;;2.07;;
22417;SDS011;11376;50.932;4.442;2024-02-14T00:55:40;6.33;;;2.37;;
22417;SDS011;11376;50.932;4.442;2024-02-14T00:58:06;5.70;;;1.70;;
22417;SDS011;11376;50.932;4.442;2024-02-14T01:00:31;6.93;;;2.37;;
22417;SDS011;11376;50.932;4.442;2024-02-14T01:02:57;5.80;;;2.20;;
22417;SDS011;11376;50.932;4.442;2024-02-14T01:05:23;5.70;;;2.07;;
22417;SDS011;11376;50.932;4.442;2024-02-14T01:07:49;4.23;;;1.80;;
22417;SDS011;11376;50.932;4.442;2024-02-14T01:10:15;5.70;;;1.70;;
22417;SDS011;11376;50.932;4.442;2024-02-14T01:12:40;5.63;;;1.90;;
22417;SDS011;11376;50.932;4.442;2024-02-14T01:15:06;6.50;;;2.27;;
22417;SDS011;11376;50.932;4.442;2024-02-14T01:17:32;5.97;;;2.00;;
22417;SDS011;11376;50.932;4.442;2024-02-14T01:20:00;6.03;;;2.30;;
22417;SDS011;11376;50.932;4.442;2024-02-14T01:22:27;6.60;;;2.10;;
22417;SDS011;11376;50.932;4.442;2024-02-14T01:24:53;5.50;;;1.77;;
22417;SDS011;11376;50.932;4.442;2024-02-14T01:27:19;5.87;;;2.27;;
22417;SDS011;11376;50.932;4.442;2024-02-14T01:29:47;4.77;;;2.13;;
22417;SDS011;11376;50.932;4.442;2024-02-14T01:32:13;4.80;;;1.73;;
22417;SDS011;11376;50.932;4.442;2024-02-14T01:34:39;7.37;;;2.37;;
22417;SDS011;11376;50.932;4.442;2024-02-14T01:37:04;5.07;;;2.10;;
22417;SDS011;11376;50.932;4.442;2024-02-14T01:39:31;6.07;;;2.43;;
22417;SDS011;11376;50.932;4.442;2024-02-14T01:41:56;4.50;;;2.17;;
22417;SDS011;11376;50.932;4.442;2024-02-14T01:44:22;6.27;;;1.80;;
22417;SDS011;11376;50.932;4.442;2024-02-14T01:46:48;5.70;;;2.40;;
22417;SDS011;11376;50.932;4.442;2024-02-14T01:49:13;7.10;;;2.83;;
22417;SDS011;11376;50.932;4.442;2024-02-14T01:51:42;6.07;;;2.80;;
22417;SDS011;11376;50.932;4.442;2024-02-14T01:54:10;7.47;;;3.47;;
22417;SDS011;11376;50.932;4.442;2024-02-14T01:56:37;7.57;;;3.20;;
22417;SDS011;11376;50.932;4.442;2024-02-14T01:59:03;7.43;;;3.00;;
22417;SDS011;11376;50.932;4.442;2024-02-14T02:01:30;7.30;;;2.53;;
22417;SDS011;11376;50.932;4.442;2024-02-14T02:03:56;11.80;;;3.37;;
22417;SDS011;11376;50.932;4.442;2024-02-14T02:06:22;9.33;;;3.27;;
22417;SDS011;11376;50.932;4.442;2024-02-14T02:08:48;8.53;;;3.87;;
22417;SDS011;11376;50.932;4.442;2024-02-14T02:11:14;8.23;;;2.77;;
22417;SDS011;11376;50.932;4.442;2024-02-14T02:13:40;6.40;;;3.10;;
22417;SDS011;11376;50.932;4.442;2024-02-14T02:16:06;5.53;;;2.70;;
22417;SDS011;11376;50.932;4.442;2024-02-14T02:18:32;11.17;;;3.60;;
22417;SDS011;11376;50.932;4.442;2024-02-14T02:20:57;6.27;;;2.70;;
22417;SDS011;11376;50.932;4.442;2024-02-14T02:23:23;9.23;;;3.33;;
22417;SDS011;11376;50.932;4.442;2024-02-14T02:25:48;11.23;;;4.03;;
22417;SDS011;11376;50.932;4.442;2024-02-14T02:28:15;9.57;;;3.47;;
22417;SDS011;11376;50.932;4.442;2024-02-14T02:30:41;8.17;;;3.13;;
22417;SDS011;11376;50.932;4.442;2024-02-14T02:33:07;8.27;;;3.50;;
22417;SDS011;11376;50.932;4.442;2024-02-14T02:35:33;8.53;;;3.20;;
22417;SDS011;11376;50.932;4.442;2024-02-14T02:37:59;9.87;;;3.47;;
22417;SDS011;11376;50.932;4.442;2024-02-14T02:40:25;9.73;;;3.17;;
22417;SDS011;11376;50.932;4.442;2024-02-14T02:42:54;8.60;;;3.10;;
22417;SDS011;11376;50.932;4.442;2024-02-14T02:45:20;10.80;;;4.47;;
22417;SDS011;11376;50.932;4.442;2024-02-14T02:47:46;11.83;;;3.97;;
22417;SDS011;11376;50.932;4.442;2024-02-14T02:50:13;9.73;;;3.80;;
22417;SDS011;11376;50.932;4.442;2024-02-14T02:52:38;7.97;;;3.43;;
22417;SDS011;11376;50.932;4.442;2024-02-14T02:55:06;8.37;;;3.73;;
22417;SDS011;11376;50.932;4.442;2024-02-14T02:57:32;9.63;;;2.77;;
22417;SDS011;11376;50.932;4.442;2024-02-14T02:59:59;11.23;;;3.87;;
22417;SDS011;11376;50.932;4.442;2024-02-14T03:02:25;7.37;;;3.37;;
22417;SDS011;11376;50.932;4.442;2024-02-14T03:04:51;8.63;;;3.53;;
22417;SDS011;11376;50.932;4.442;2024-02-14T03:07:18;7.77;;;3.93;;
22417;SDS011;11376;50.932;4.442;2024-02-14T03:09:48;8.00;;;3.93;;
22417;SDS011;11376;50.932;4.442;2024-02-14T03:12:14;9.83;;;4.20;;
22417;SDS011;11376;50.932;4.442;2024-02-14T03:14:41;8.53;;;4.20;;
22417;SDS011;11376;50.932;4.442;2024-02-14T03:17:08;13.80;;;4.93;;
22417;SDS011;11376;50.932;4.442;2024-02-14T03:19:35;10.80;;;4.73;;
22417;SDS011;11376;50.932;4.442;2024-02-14T03:22:03;9.57;;;5.37;;
22417;SDS011;11376;50.932;4.442;2024-02-14T03:24:30;11.23;;;3.90;;
22417;SDS011;11376;50.932;4.442;2024-02-14T03:26:56;12.00;;;4.80;;
22417;SDS011;11376;50.932;4.442;2024-02-14T03:29:22;12.07;;;4.90;;
22417;SDS011;11376;50.932;4.442;2024-02-14T03:31:47;14.27;;;6.30;;
22417;SDS011;11376;50.932;4.442;2024-02-14T03:34:13;13.07;;;5.63;;
22417;SDS011;11376;50.932;4.442;2024-02-14T03:36:39;15.43;;;5.50;;
22417;SDS011;11376;50.932;4.442;2024-02-14T03:39:05;14.40;;;5.27;;
22417;SDS011;11376;50.932;4.442;2024-02-14T03:41:31;11.37;;;4.53;;
22417;SDS011;11376;50.932;4.442;2024-02-14T03:43:57;8.00;;;3.63;;
22417;SDS011;11376;50.932;4.442;2024-02-14T03:46:26;11.10;;;5.10;;
22417;SDS011;11376;50.932;4.442;2024-02-14T03:48:52;13.13;;;5.10;;
22417;SDS011;11376;50.932;4.442;2024-02-14T03:51:18;9.60;;;4.17;;
22417;SDS011;11376;50.932;4.442;2024-02-14T03:53:44;10.70;;;5.07;;
22417;SDS011;11376;50.932;4.442;2024-02-14T03:56:10;10.83;;;4.07;;
22417;SDS011;11376;50.932;4.442;2024-02-14T03:58:37;14.30;;;5.93;;
22417;SDS011;11376;50.932;4.442;2024-02-14T04:01:04;12.93;;;4.33;;
22417;SDS011;11376;50.932;4.442;2024-02-14T04:03:30;15.17;;;5.90;;
22417;SDS011;11376;50.932;4.442;2024-02-14T04:05:55;9.77;;;4.20;;
22417;SDS011;11376;50.932;4.442;2024-02-14T04:08:21;13.83;;;6.03;;
22417;SDS011;11376;50.932;4.442;2024-02-14T04:10:47;12.97;;;5.17;;
22417;SDS011;11376;50.932;4.442;2024-02-14T04:13:15;12.77;;;5.10;;
22417;SDS011;11376;50.932;4.442;2024-02-14T04:15:41;13.50;;;5.33;;
22417;SDS011;11376;50.932;4.442;2024-02-14T04:18:08;11.27;;;4.43;;
22417;SDS011;11376;50.932;4.442;2024-02-14T04:20:34;12.20;;;4.90;;
22417;SDS011;11376;50.932;4.442;2024-02-14T04:23:00;9.40;;;4.33;;
22417;SDS011;11376;50.932;4.442;2024-02-14T04:25:25;15.60;;;6.20;;
22417;SDS011;11376;50.932;4.442;2024-02-14T04:27:51;15.47;;;5.27;;
22417;SDS011;11376;50.932;4.442;2024-02-14T04:30:17;11.63;;;5.00;;
22417;SDS011;11376;50.932;4.442;2024-02-14T04:32:42;16.67;;;6.80;;
22417;SDS011;11376;50.932;4.442;2024-02-14T04:35:11;16.47;;;4.47;;
22417;SDS011;11376;50.932;4.442;2024-02-14T04:37:36;15.33;;;6.40;;
22417;SDS011;11376;50.932;4.442;2024-02-14T04:40:02;11.50;;;5.80;;
22417;SDS011;11376;50.932;4.442;2024-02-14T04:42:29;12.77;;;4.50;;
22417;SDS011;11376;50.932;4.442;2024-02-14T04:44:55;14.13;;;5.07;;
22417;SDS011;11376;50.932;4.442;2024-02-14T04:47:20;14.20;;;6.20;;
22417;SDS011;11376;50.932;4.442;2024-02-14T04:49:46;10.93;;;5.03;;
22417;SDS011;11376;50.932;4.442;2024-02-14T04:52:12;12.63;;;5.77;;
22417;SDS011;11376;50.932;4.442;2024-02-14T04:54:37;16.93;;;5.87;;
22417;SDS011;11376;50.932;4.442;2024-02-14T04:57:03;16.17;;;6.83;;
22417;SDS011;11376;50.932;4.442;2024-02-14T04:59:29;10.53;;;3.53;;
22417;SDS011;11376;50.932;4.442;2024-02-14T05:01:55;14.07;;;5.50;;
22417;SDS011;11376;50.932;4.442;2024-02-14T05:04:21;12.40;;;5.53;;
22417;SDS011;11376;50.932;4.442;2024-02-14T05:06:47;15.17;;;5.90;;
22417;SDS011;11376;50.932;4.442;2024-02-14T05:09:13;12.03;;;5.30;;
22417;SDS011;11376;50.932;4.442;2024-02-14T05:11:40;15.03;;;6.10;;
22417;SDS011;11376;50.932;4.442;2024-02-14T05:14:06;16.43;;;6.10;;
22417;SDS011;11376;50.932;4.442;2024-02-14T05:16:32;13.73;;;5.97;;
22417;SDS011;11376;50.932;4.442;2024-02-14T05:18:57;13.07;;;6.63;;
22417;SDS011;11376;50.932;4.442;2024-02-14T05:21:23;16.03;;;7.30;;
22417;SDS011;11376;50.932;4.442;2024-02-14T05:23:48;13.57;;;5.70;;
22417;SDS011;11376;50.932;4.442;2024-02-14T05:26:15;14.63;;;6.57;;
22417;SDS011;11376;50.932;4.442;2024-02-14T05:28:41;15.03;;;6.60;;
22417;SDS011;11376;50.932;4.442;2024-02-14T05:31:07;16.10;;;6.17;;
22417;SDS011;11376;50.932;4.442;2024-02-14T05:33:33;16.47;;;7.10;;
22417;SDS011;11376;50.932;4.442;2024-02-14T05:35:58;14.30;;;6.97;;
22417;SDS011;11376;50.932;4.442;2024-02-14T05:38:24;13.67;;;4.97;;
22417;SDS011;11376;50.932;4.442;2024-02-14T05:40:49;18.03;;;7.10;;
22417;SDS011;11376;50.932;4.442;2024-02-14T05:43:15;14.33;;;5.53;;
22417;SDS011;11376;50.932;4.442;2024-02-14T05:45:42;10.40;;;3.83;;
22417;SDS011;11376;50.932;4.442;2024-02-14T05:48:08;17.87;;;7.60;;
22417;SDS011;11376;50.932;4.442;2024-02-14T05:50:33;13.13;;;5.13;;
22417;SDS011;11376;50.932;4.442;2024-02-14T05:52:59;19.33;;;5.50;;
22417;SDS011;11376;50.932;4.442;2024-02-14T05:55:25;13.37;;;5.80;;
22417;SDS011;11376;50.932;4.442;2024-02-14T05:57:51;15.83;;;5.90;;
22417;SDS011;11376;50.932;4.442;2024-02-14T06:00:17;11.50;;;4.23;;
22417;SDS011;11376;50.932;4.442;2024-02-14T06:02:49;10.90;;;4.23;;
22417;SDS011;11376;50.932;4.442;2024-02-14T06:05:15;16.73;;;6.13;;
22417;SDS011;11376;50.932;4.442;2024-02-14T06:07:41;13.90;;;5.97;;
22417;SDS011;11376;50.932;4.442;2024-02-14T06:10:10;15.00;;;5.90;;
22417;SDS011;11376;50.932;4.442;2024-02-14T06:12:36;15.00;;;5.93;;
22417;SDS011;11376;50.932;4.442;2024-02-14T06:15:02;12.93;;;5.80;;
22417;SDS011;11376;50.932;4.442;2024-02-14T06:17:28;16.93;;;6.37;;
22417;SDS011;11376;50.932;4.442;2024-02-14T06:19:53;11.10;;;4.47;;
22417;SDS011;11376;50.932;4.442;2024-02-14T06:22:20;10.87;;;3.73;;
22417;SDS011;11376;50.932;4.442;2024-02-14T06:24:46;17.07;;;6.90;;
22417;SDS011;11376;50.932;4.442;2024-02-14T06:27:15;14.20;;;5.27;;
22417;SDS011;11376;50.932;4.442;2024-02-14T06:29:42;14.03;;;5.20;;
22417;SDS011;11376;50.932;4.442;2024-02-14T06:32:07;16.63;;;6.73;;
22417;SDS011;11376;50.932;4.442;2024-02-14T06:34:33;15.13;;;6.07;;
22417;SDS011;11376;50.932;4.442;2024-02-14T06:36:59;13.47;;;5.17;;
22417;SDS011;11376;50.932;4.442;2024-02-14T06:39:24;14.33;;;5.20;;
22417;SDS011;11376;50.932;4.442;2024-02-14T06:41:50;16.97;;;6.07;;
22417;SDS011;11376;50.932;4.442;2024-02-14T06:44:15;16.07;;;5.63;;
22417;SDS011;11376;50.932;4.442;2024-02-14T06:46:41;17.17;;;5.83;;
22417;SDS011;11376;50.932;4.442;2024-02-14T06:49:07;10.90;;;4.10;;
22417;SDS011;11376;50.932;4.442;2024-02-14T06:51:34;15.50;;;6.00;;
22417;SDS011;11376;50.932;4.442;2024-02-14T06:53:59;16.30;;;5.47;;
22417;SDS011;11376;50.932;4.442;2024-02-14T06:56:25;15.20;;;6.00;;
22417;SDS011;11376;50.932;4.442;2024-02-14T06:58:50;13.07;;;5.07;;
22417;SDS011;11376;50.932;4.442;2024-02-14T07:01:18;12.83;;;5.17;;
22417;SDS011;11376;50.932;4.442;2024-02-14T07:03:47;17.17;;;5.43;;
22417;SDS011;11376;50.932;4.442;2024-02-14T07:06:14;12.93;;;5.13;;
22417;SDS011;11376;50.932;4.442;2024-02-14T07:08:42;14.07;;;5.47;;
22417;SDS011;11376;50.932;4.442;2024-02-14T07:11:08;15.27;;;5.77;;
22417;SDS011;11376;50.932;4.442;2024-02-14T07:13:34;12.93;;;5.23;;
22417;SDS011;11376;50.932;4.442;2024-02-14T07:15:59;13.47;;;4.90;;
22417;SDS011;11376;50.932;4.442;2024-02-14T07:18:25;14.40;;;5.93;;
22417;SDS011;11376;50.932;4.442;2024-02-14T07:20:51;16.53;;;5.87;;
22417;SDS011;11376;50.932;4.442;2024-02-14T07:23:18;11.33;;;3.87;;
22417;SDS011;11376;50.932;4.442;2024-02-14T07:25:43;16.10;;;6.03;;
22417;SDS011;11376;50.932;4.442;2024-02-14T07:28:09;12.47;;;5.10;;
22417;SDS011;11376;50.932;4.442;2024-02-14T07:30:35;20.50;;;5.47;;
22417;SDS011;11376;50.932;4.442;2024-02-14T07:33:01;19.53;;;6.47;;
22417;SDS011;11376;50.932;4.442;2024-02-14T07:35:26;14.93;;;6.10;;
22417;SDS011;11376;50.932;4.442;2024-02-14T07:37:52;16.17;;;5.53;;
22417;SDS011;11376;50.932;4.442;2024-02-14T07:40:18;12.57;;;3.97;;
22417;SDS011;11376;50.932;4.442;2024-02-14T07:42:44;11.17;;;4.93;;
22417;SDS011;11376;50.932;4.442;2024-02-14T07:45:09;18.13;;;5.43;;
22417;SDS011;11376;50.932;4.442;2024-02-14T07:47:35;18.47;;;5.57;;
22417;SDS011;11376;50.932;4.442;2024-02-14T07:50:00;11.20;;;4.80;;
22417;SDS011;11376;50.932;4.442;2024-02-14T07:52:27;13.23;;;5.20;;
22417;SDS011;11376;50.932;4.442;2024-02-14T07:54:53;12.20;;;3.43;;
22417;SDS011;11376;50.932;4.442;2024-02-14T07:57:19;13.63;;;4.70;;
22417;SDS011;11376;50.932;4.442;2024-02-14T07:59:46;15.23;;;5.53;;
22417;SDS011;11376;50.932;4.442;2024-02-14T08:02:12;12.97;;;5.23;;
22417;SDS011;11376;50.932;4.442;2024-02-14T08:04:37;13.87;;;4.67;;
22417;SDS011;11376;50.932;4.442;2024-02-14T08:07:03;13.80;;;3.83;;
22417;SDS011;11376;50.932;4.442;2024-02-14T08:09:29;13.90;;;4.97;;
22417;SDS011;11376;50.932;4.442;2024-02-14T08:11:55;14.33;;;5.37;;
22417;SDS011;11376;50.932;4.442;2024-02-14T08:14:20;13.33;;;4.80;;
22417;SDS011;11376;50.932;4.442;2024-02-14T08:16:46;15.33;;;4.60;;
22417;SDS011;11376;50.932;4.442;2024-02-14T08:19:11;12.03;;;4.97;;
22417;SDS011;11376;50.932;4.442;2024-02-14T08:21:37;11.93;;;4.53;;
22417;SDS011;11376;50.932;4.442;2024-02-14T08:24:03;15.10;;;5.47;;
22417;SDS011;11376;50.932;4.442;2024-02-14T08:26:28;16.57;;;6.00;;
22417;SDS011;11376;50.932;4.442;2024-02-14T08:28:54;15.10;;;5.53;;
22417;SDS011;11376;50.932;4.442;2024-02-14T08:31:20;13.13;;;5.23;;
22417;SDS011;11376;50.932;4.442;2024-02-14T08:33:45;18.27;;;6.13;;
22417;SDS011;11376;50.932;4.442;2024-02-14T08:36:11;11.67;;;4.70;;
22417;SDS011;11376;50.932;4.442;2024-02-14T08:38:37;14.03;;;5.80;;
22417;SDS011;11376;50.932;4.442;2024-02-14T08:41:03;12.80;;;6.07;;
22417;SDS011;11376;50.932;4.442;2024-02-14T08:43:29;14.30;;;4.20;;
22417;SDS011;11376;50.932;4.442;2024-02-14T08:45:56;10.67;;;4.17;;
22417;SDS011;11376;50.932;4.442;2024-02-14T08:48:22;17.00;;;6.60;;
22417;SDS011;11376;50.932;4.442;2024-02-14T08:50:48;14.47;;;5.57;;
22417;SDS011;11376;50.932;4.442;2024-02-14T08:53:14;16.03;;;5.20;;
22417;SDS011;11376;50.932;4.442;2024-02-14T08:55:40;17.60;;;5.60;;
22417;SDS011;11376;50.932;4.442;2024-02-14T08:58:06;11.60;;;4.50;;
22417;SDS011;11376;50.932;4.442;2024-02-14T09:00:34;14.03;;;4.87;;
22417;SDS011;11376;50.932;4.442;2024-02-14T09:03:00;9.57;;;3.80;;
22417;SDS011;11376;50.932;4.442;2024-02-14T09:05:28;11.77;;;6.33;;
22417;SDS011;11376;50.932;4.442;2024-02-14T09:07:54;16.87;;;6.50;;
22417;SDS011;11376;50.932;4.442;2024-02-14T09:10:19;12.17;;;5.47;;
22417;SDS011;11376;50.932;4.442;2024-02-14T09:12:45;11.80;;;4.53;;
22417;SDS011;11376;50.932;4.442;2024-02-14T09:15:11;16.10;;;5.80;;
22417;SDS011;11376;50.932;4.442;2024-02-14T09:17:37;17.87;;;6.13;;
22417;SDS011;11376;50.932;4.442;2024-02-14T09:20:05;13.33;;;5.70;;
22417;SDS011;11376;50.932;4.442;2024-02-14T09:22:34;12.37;;;5.90;;
22417;SDS011;11376;50.932;4.442;2024-02-14T09:25:00;12.30;;;4.70;;
22417;SDS011;11376;50.932;4.442;2024-02-14T09:27:29;11.03;;;4.67;;
22417;SDS011;11376;50.932;4.442;2024-02-14T09:29:58;14.27;;;5.10;;
22417;SDS011;11376;50.932;4.442;2024-02-14T09:32:23;10.90;;;4.33;;
22417;SDS011;11376;50.932;4.442;2024-02-14T09:34:49;21.13;;;4.53;;
22417;SDS011;11376;50.932;4.442;2024-02-14T09:37:15;13.43;;;5.97;;
22417;SDS011;11376;50.932;4.442;2024-02-14T09:39:41;13.27;;;5.47;;
22417;SDS011;11376;50.932;4.442;2024-02-14T09:42:11;13.33;;;6.07;;
22417;SDS011;11376;50.932;4.442;2024-02-14T09:44:38;13.50;;;6.40;;
22417;SDS011;11376;50.932;4.442;2024-02-14T09:47:05;12.10;;;5.70;;
22417;SDS011;11376;50.932;4.442;2024-02-14T09:49:32;10.83;;;4.60;;
22417;SDS011;11376;50.932;4.442;2024-02-14T09:52:03;10.50;;;5.10;;
22417;SDS011;11376;50.932;4.442;2024-02-14T09:54:31;10.00;;;5.03;;
22417;SDS011;11376;50.932;4.442;2024-02-14T09:56:59;11.97;;;6.07;;
22417;SDS011;11376;50.932;4.442;2024-02-14T09:59:27;15.13;;;7.37;;
22417;SDS011;11376;50.932;4.442;2024-02-14T10:01:54;12.97;;;6.07;;
22417;SDS011;11376;50.932;4.442;2024-02-14T10:04:20;11.90;;;6.03;;
22417;SDS011;11376;50.932;4.442;2024-02-14T10:06:47;14.90;;;7.07;;
22417;SDS011;11376;50.932;4.442;2024-02-14T10:09:17;13.73;;;7.00;;
22417;SDS011;11376;50.932;4.442;2024-02-14T10:11:47;12.30;;;5.27;;
22417;SDS011;11376;50.932;4.442;2024-02-14T10:14:13;14.53;;;6.00;;
22417;SDS011;11376;50.932;4.442;2024-02-14T10:16:39;14.40;;;7.63;;
22417;SDS011;11376;50.932;4.442;2024-02-14T10:19:04;11.93;;;6.03;;
22417;SDS011;11376;50.932;4.442;2024-02-14T10:21:32;12.90;;;5.90;;
22417;SDS011;11376;50.932;4.442;2024-02-14T10:24:01;11.87;;;5.00;;
22417;SDS011;11376;50.932;4.442;2024-02-14T10:26:28;11.27;;;5.47;;
22417;SDS011;11376;50.932;4.442;2024-02-14T10:28:56;11.90;;;6.60;;
22417;SDS011;11376;50.932;4.442;2024-02-14T10:31:24;11.50;;;6.07;;
22417;SDS011;11376;50.932;4.442;2024-02-14T10:33:50;11.30;;;5.80;;
22417;SDS011;11376;50.932;4.442;2024-02-14T10:36:17;11.77;;;5.37;;
22417;SDS011;11376;50.932;4.442;2024-02-14T10:38:45;12.93;;;7.03;;
22417;SDS011;11376;50.932;4.442;2024-02-14T10:41:14;10.83;;;5.20;;
22417;SDS011;11376;50.932;4.442;2024-02-14T10:43:41;10.17;;;5.33;;
22417;SDS011;11376;50.932;4.442;2024-02-14T10:46:09;8.93;;;4.87;;
22417;SDS011;11376;50.932;4.442;2024-02-14T10:48:50;10.57;;;5.70;;
22417;SDS011;11376;50.932;4.442;2024-02-14T10:51:21;8.43;;;4.70;;
22417;SDS011;11376;50.932;4.442;2024-02-14T10:53:47;11.50;;;6.00;;
22417;SDS011;11376;50.932;4.442;2024-02-14T10:56:18;12.70;;;5.50;;
22417;SDS011;11376;50.932;4.442;2024-02-14T10:58:47;11.53;;;5.17;;
22417;SDS011;11376;50.932;4.442;2024-02-14T11:01:14;8.37;;;3.47;;
22417;SDS011;11376;50.932;4.442;2024-02-14T11:03:41;10.13;;;5.00;;
22417;SDS011;11376;50.932;4.442;2024-02-14T11:06:08;9.50;;;5.17;;
22417;SDS011;11376;50.932;4.442;2024-02-14T11:08:34;7.10;;;2.50;;
22417;SDS011;11376;50.932;4.442;2024-02-14T11:11:00;9.27;;;4.67;;
22417;SDS011;11376;50.932;4.442;2024-02-14T11:13:26;7.63;;;3.07;;
22417;SDS011;11376;50.932;4.442;2024-02-14T11:16:01;10.17;;;4.93;;
22417;SDS011;11376;50.932;4.442;2024-02-14T11:18:29;7.63;;;4.07;;
22417;SDS011;11376;50.932;4.442;2024-02-14T11:20:55;8.83;;;3.80;;
22417;SDS011;11376;50.932;4.442;2024-02-14T11:23:23;9.27;;;5.07;;
22417;SDS011;11376;50.932;4.442;2024-02-14T11:25:49;9.63;;;4.70;;
22417;SDS011;11376;50.932;4.442;2024-02-14T11:28:16;10.67;;;5.07;;
22417;SDS011;11376;50.932;4.442;2024-02-14T11:30:46;8.83;;;4.43;;
22417;SDS011;11376;50.932;4.442;2024-02-14T11:35:40;9.33;;;4.03;;
22417;SDS011;11376;50.932;4.442;2024-02-14T11:38:06;8.20;;;4.13;;
22417;SDS011;11376;50.932;4.442;2024-02-14T11:40:32;11.40;;;4.83;;
22417;SDS011;11376;50.932;4.442;2024-02-14T11:42:58;9.23;;;4.70;;
22417;SDS011;11376;50.932;4.442;2024-02-14T11:45:23;9.77;;;4.80;;
22417;SDS011;11376;50.932;4.442;2024-02-14T11:47:52;8.07;;;4.87;;
22417;SDS011;11376;50.932;4.442;2024-02-14T11:50:17;7.03;;;3.30;;
22417;SDS011;11376;50.932;4.442;2024-02-14T11:52:43;8.00;;;4.20;;
22417;SDS011;11376;50.932;4.442;2024-02-14T11:55:09;12.30;;;5.80;;
22417;SDS011;11376;50.932;4.442;2024-02-14T11:57:37;8.90;;;4.07;;
22417;SDS011;11376;50.932;4.442;2024-02-14T12:00:03;9.70;;;4.33;;
22417;SDS011;11376;50.932;4.442;2024-02-14T12:02:29;11.70;;;4.83;;
22417;SDS011;11376;50.932;4.442;2024-02-14T12:04:55;7.43;;;3.50;;
22417;SDS011;11376;50.932;4.442;2024-02-14T12:07:22;10.40;;;5.47;;
22417;SDS011;11376;50.932;4.442;2024-02-14T12:09:49;7.33;;;3.23;;
22417;SDS011;11376;50.932;4.442;2024-02-14T12:12:15;7.83;;;4.40;;
22417;SDS011;11376;50.932;4.442;2024-02-14T12:14:44;11.67;;;5.13;;
22417;SDS011;11376;50.932;4.442;2024-02-14T12:17:14;10.13;;;4.50;;
22417;SDS011;11376;50.932;4.442;2024-02-14T12:19:43;7.33;;;3.73;;
22417;SDS011;11376;50.932;4.442;2024-02-14T12:22:09;7.93;;;3.83;;
22417;SDS011;11376;50.932;4.442;2024-02-14T12:24:45;7.53;;;4.07;;
22417;SDS011;11376;50.932;4.442;2024-02-14T12:27:13;9.30;;;4.93;;
22417;SDS011;11376;50.932;4.442;2024-02-14T12:29:41;9.90;;;4.53;;
22417;SDS011;11376;50.932;4.442;2024-02-14T12:32:10;7.33;;;3.53;;
22417;SDS011;11376;50.932;4.442;2024-02-14T12:34:37;10.17;;;4.37;;
22417;SDS011;11376;50.932;4.442;2024-02-14T12:37:03;11.07;;;4.20;;
22417;SDS011;11376;50.932;4.442;2024-02-14T12:39:28;10.33;;;4.93;;
22417;SDS011;11376;50.932;4.442;2024-02-14T12:41:54;8.27;;;4.23;;
22417;SDS011;11376;50.932;4.442;2024-02-14T12:44:20;9.83;;;4.20;;
22417;SDS011;11376;50.932;4.442;2024-02-14T12:46:46;5.47;;;2.67;;
22417;SDS011;11376;50.932;4.442;2024-02-14T12:49:11;9.83;;;3.80;;
22417;SDS011;11376;50.932;4.442;2024-02-14T12:51:37;7.33;;;3.53;;
22417;SDS011;11376;50.932;4.442;2024-02-14T12:54:03;8.00;;;3.60;;
22417;SDS011;11376;50.932;4.442;2024-02-14T12:56:30;7.93;;;3.47;;
22417;SDS011;11376;50.932;4.442;2024-02-14T12:58:56;9.83;;;3.77;;
22417;SDS011;11376;50.932;4.442;2024-02-14T13:01:22;10.53;;;5.07;;
22417;SDS011;11376;50.932;4.442;2024-02-14T13:03:48;11.53;;;4.37;;
22417;SDS011;11376;50.932;4.442;2024-02-14T13:06:13;7.43;;;3.67;;
22417;SDS011;11376;50.932;4.442;2024-02-14T13:08:39;6.97;;;2.93;;
22417;SDS011;11376;50.932;4.442;2024-02-14T13:11:04;7.87;;;4.27;;
22417;SDS011;11376;50.932;4.442;2024-02-14T13:13:30;14.03;;;4.23;;
22417;SDS011;11376;50.932;4.442;2024-02-14T13:15:56;10.17;;;5.00;;
22417;SDS011;11376;50.932;4.442;2024-02-14T13:18:22;10.73;;;3.40;;
22417;SDS011;11376;50.932;4.442;2024-02-14T13:20:47;9.10;;;3.50;;
22417;SDS011;11376;50.932;4.442;2024-02-14T13:23:15;9.37;;;4.40;;
22417;SDS011;11376;50.932;4.442;2024-02-14T13:25:41;8.40;;;3.97;;
22417;SDS011;11376;50.932;4.442;2024-02-14T13:28:07;10.57;;;3.80;;
22417;SDS011;11376;50.932;4.442;2024-02-14T13:30:32;9.17;;;4.60;;
22417;SDS011;11376;50.932;4.442;2024-02-14T13:32:58;7.93;;;3.80;;
22417;SDS011;11376;50.932;4.442;2024-02-14T13:35:24;7.10;;;3.40;;
22417;SDS011;11376;50.932;4.442;2024-02-14T13:37:49;9.57;;;4.27;;
22417;SDS011;11376;50.932;4.442;2024-02-14T13:40:15;7.63;;;3.40;;
22417;SDS011;11376;50.932;4.442;2024-02-14T13:42:41;8.17;;;3.63;;
22417;SDS011;11376;50.932;4.442;2024-02-14T13:45:06;9.20;;;3.67;;
22417;SDS011;11376;50.932;4.442;2024-02-14T13:47:37;8.03;;;3.83;;
22417;SDS011;11376;50.932;4.442;2024-02-14T13:50:04;7.80;;;3.43;;
22417;SDS011;11376;50.932;4.442;2024-02-14T13:52:33;10.77;;;4.23;;
22417;SDS011;11376;50.932;4.442;2024-02-14T13:55:00;6.80;;;3.50;;
22417;SDS011;11376;50.932;4.442;2024-02-14T13:57:30;11.00;;;3.90;;
22417;SDS011;11376;50.932;4.442;2024-02-14T13:59:57;9.40;;;3.70;;
22417;SDS011;11376;50.932;4.442;2024-02-14T14:02:23;9.27;;;4.67;;
22417;SDS011;11376;50.932;4.442;2024-02-14T14:04:48;12.87;;;4.50;;
22417;SDS011;11376;50.932;4.442;2024-02-14T14:07:14;8.07;;;3.63;;
22417;SDS011;11376;50.932;4.442;2024-02-14T14:09:40;14.43;;;4.87;;
22417;SDS011;11376;50.932;4.442;2024-02-14T14:12:05;9.60;;;4.30;;
22417;SDS011;11376;50.932;4.442;2024-02-14T14:14:31;5.53;;;2.90;;
22417;SDS011;11376;50.932;4.442;2024-02-14T14:16:56;9.27;;;3.77;;
22417;SDS011;11376;50.932;4.442;2024-02-14T14:19:25;6.20;;;3.00;;
22417;SDS011;11376;50.932;4.442;2024-02-14T14:21:51;6.57;;;4.07;;
22417;SDS011;11376;50.932;4.442;2024-02-14T14:24:16;7.27;;;3.63;;
22417;SDS011;11376;50.932;4.442;2024-02-14T14:26:42;7.87;;;2.87;;
22417;SDS011;11376;50.932;4.442;2024-02-14T14:29:08;4.97;;;2.60;;
22417;SDS011;11376;50.932;4.442;2024-02-14T14:31:34;5.00;;;2.83;;
22417;SDS011;11376;50.932;4.442;2024-02-14T14:34:00;7.07;;;3.13;;
22417;SDS011;11376;50.932;4.442;2024-02-14T14:36:26;6.77;;;2.73;;
22417;SDS011;11376;50.932;4.442;2024-02-14T14:38:52;7.23;;;3.10;;